Gloucester, North Carolina
Current Conditions -  °F | °C
As of 9:58 PM on Tuesday 21 Oct 2014 (Local Time) from KMRH Reporting Station
Scattered Clouds Scattered Clouds  
Wind Chill: 69°   Ceiling: Unl
Heat Index: 69°   Visibility: 10mi
Dew Point: 61°   Wind: 7mph
Humidity: 75%   Direction: 250°WSW
Pressure: 29.87"   Gusts: NA
Location:  34.73°N, 76.54°W
Report Text: KMRH 220158Z AUTO 25006KT 10SM SCT070 21/16 A2987 RMK AO2 SLP115 T02060161 TSNO
Loading
Personal Weather Stations






























Interactive Weather Map
Tropical Storm Tracking
New forecast layout! Learn more

10-Day Weather Forecast

Advertisements
Track Severe Weather on mobile